createdAt,value
2022-11-19T00:04:58.750Z,98280.9
2022-11-19T00:10:34.650Z,98278.5
2022-11-19T00:16:09.713Z,98273.1
2022-11-19T00:22:29.750Z,98264.5
2022-11-19T00:28:12.423Z,98260.4
2022-11-19T00:33:47.726Z,98266.9
2022-11-19T00:39:28.725Z,98266.7
2022-11-19T00:45:07.886Z,98278.3
2022-11-19T00:50:43.105Z,98279.1
2022-11-19T00:56:18.513Z,98273.7
2022-11-19T01:01:54.142Z,98272.2
2022-11-19T01:07:29.443Z,98267.1
2022-11-19T01:13:06.052Z,98261.7
2022-11-19T01:18:41.923Z,98261.3
2022-11-19T01:24:17.312Z,98268
2022-11-19T01:30:13.220Z,98274.6
2022-11-19T01:35:57.350Z,98279.3
2022-11-19T01:41:35.267Z,98291.2
2022-11-19T01:47:38.330Z,98285.9
2022-11-19T01:53:15.227Z,98280.8
2022-11-19T01:58:51.249Z,98284.5
2022-11-19T02:04:35.371Z,98281
2022-11-19T02:10:10.389Z,98286.8
2022-11-19T02:15:54.154Z,98287.9
2022-11-19T02:21:30.500Z,98291.9
2022-11-19T02:27:05.527Z,98293.4
2022-11-19T02:32:40.723Z,98288.6
2022-11-19T02:38:16.102Z,98289.3
2022-11-19T02:43:52.018Z,98290.6
2022-11-19T02:49:27.409Z,98292.7
2022-11-19T02:55:02.671Z,98306.8
2022-11-19T03:00:41.612Z,98307.5
2022-11-19T03:06:16.764Z,98292.9
2022-11-19T03:11:52.219Z,98299.8
2022-11-19T03:17:28.750Z,98302.6
2022-11-19T03:23:04.512Z,98298.3
2022-11-19T03:28:39.303Z,98283.4
2022-11-19T03:34:16.082Z,98280
2022-11-19T03:39:54.089Z,98276.7
2022-11-19T03:45:29.603Z,98279
2022-11-19T03:51:04.930Z,98277.4
2022-11-19T03:56:52.856Z,98280.9
2022-11-19T04:02:37.424Z,98281.1
2022-11-19T04:08:30.940Z,98284.8
2022-11-19T04:14:35.402Z,98284.5
2022-11-19T04:20:31.837Z,98276.2
2022-11-19T04:26:21.148Z,98272.8
2022-11-19T04:32:12.817Z,98277.5
2022-11-19T04:37:51.317Z,98281.1
2022-11-19T04:43:26.266Z,98286.8
2022-11-19T04:49:03.835Z,98293.1
2022-11-19T04:54:39.221Z,98302.5
2022-11-19T05:00:15.456Z,98305.5
2022-11-19T05:05:50.745Z,98315.9
2022-11-19T05:11:34.138Z,98318.1
2022-11-19T05:17:09.657Z,98324.4
2022-11-19T05:23:59.979Z,98323.3
2022-11-19T05:29:37.927Z,98319.4
2022-11-19T05:35:59.270Z,98322.1
2022-11-19T05:41:34.449Z,98324.6
2022-11-19T05:47:09.899Z,98325.6
2022-11-19T05:52:46.710Z,98333.2
2022-11-19T05:58:22.832Z,98330.5
2022-11-19T06:03:58.153Z,98336.6
2022-11-19T06:09:33.590Z,98341.1
2022-11-19T06:15:08.441Z,98347.8
2022-11-19T06:20:43.315Z,98349.9
2022-11-19T06:26:19.380Z,98353.4
2022-11-19T06:31:54.556Z,98356.1
2022-11-19T06:37:30.646Z,98363.6
2022-11-19T06:43:05.678Z,98367.9
2022-11-19T06:49:20.701Z,98374.9
2022-11-19T06:54:54.481Z,98387.2
2022-11-19T07:00:32.085Z,98392.3
2022-11-19T07:06:10.284Z,98395.1
2022-11-19T07:12:01.211Z,98400.9
2022-11-19T07:17:36.138Z,98405.2
2022-11-19T07:23:17.032Z,98411.8
2022-11-19T07:28:52.230Z,98428.2
2022-11-19T07:34:27.067Z,98433.9
2022-11-19T07:40:02.321Z,98437
2022-11-19T07:45:42.728Z,98437.1
2022-11-19T07:51:18.084Z,98438.3
2022-11-19T07:57:15.154Z,98452
2022-11-19T08:03:23.661Z,98460.3
2022-11-19T08:09:01.603Z,98464.1
2022-11-19T08:14:41.065Z,98477.7
2022-11-19T08:20:16.494Z,98487.4
2022-11-19T08:25:53.036Z,98486.8
2022-11-19T08:31:37.162Z,98481.1
2022-11-19T08:37:16.385Z,98489.9
2022-11-19T08:42:51.949Z,98502.1
2022-11-19T08:48:49.092Z,98503.1
2022-11-19T08:54:43.783Z,98514
2022-11-19T09:00:27.982Z,98525.9
2022-11-19T09:06:04.480Z,98533.6
2022-11-19T09:12:00.566Z,98546.5
2022-11-19T09:17:43.852Z,98556.2
2022-11-19T09:23:22.135Z,98556.7
2022-11-19T09:29:00.582Z,98564
2022-11-19T09:34:35.731Z,98581.4
2022-11-19T09:40:19.638Z,98582.1
2022-11-19T09:46:19.759Z,98583.2
2022-11-19T09:51:53.001Z,98582.2
2022-11-19T09:57:28.615Z,98583.9
2022-11-19T10:03:08.371Z,98582.4
2022-11-19T10:08:44.117Z,98576.5
2022-11-19T10:14:20.741Z,98581.1
2022-11-19T10:19:57.666Z,98592.7
2022-11-19T10:25:32.625Z,98594.3
2022-11-19T10:31:13.225Z,98596.6
2022-11-19T10:36:57.000Z,98603.3
2022-11-19T10:42:32.208Z,98598.5
2022-11-19T10:48:29.267Z,98597.6
2022-11-19T10:54:02.251Z,98597.3
2022-11-19T10:59:39.594Z,98601.9
2022-11-19T11:05:35.370Z,98605.5
2022-11-19T11:11:12.794Z,98598.4
2022-11-19T11:16:48.670Z,98593.7
2022-11-19T11:22:23.830Z,98594.4
2022-11-19T11:27:59.198Z,98585.2
2022-11-19T11:33:38.033Z,98576.2
2022-11-19T11:39:15.675Z,98581.1
2022-11-19T11:44:50.828Z,98578.4
2022-11-19T11:50:25.859Z,98574.7
2022-11-19T11:56:21.620Z,98574.8
2022-11-19T12:02:01.045Z,98575.3
2022-11-19T12:07:37.092Z,98576.7
2022-11-19T12:13:13.131Z,98579
2022-11-19T12:18:48.231Z,98575.9
2022-11-19T12:24:23.465Z,98560.2
2022-11-19T12:29:58.640Z,98559.9
2022-11-19T12:35:33.890Z,98566.2
2022-11-19T12:41:09.429Z,98564.1
2022-11-19T12:47:06.335Z,98567.8
2022-11-19T12:52:39.351Z,98566.2
2022-11-19T12:58:14.340Z,98561.5
2022-11-19T13:03:50.033Z,98573.4
2022-11-19T13:09:24.897Z,98568.9
2022-11-19T13:14:59.645Z,98580.6
2022-11-19T13:20:34.699Z,98588.1
2022-11-19T13:26:09.457Z,98597.5
2022-11-19T13:31:44.548Z,98609
2022-11-19T13:37:21.114Z,98611.1
2022-11-19T13:43:33.179Z,98603.5
2022-11-19T13:49:08.642Z,98606.1
2022-11-19T13:54:50.067Z,98601.4
2022-11-19T14:00:25.223Z,98603.5
2022-11-19T14:06:01.280Z,98607.1
2022-11-19T14:11:36.057Z,98612.9
2022-11-19T14:17:11.618Z,98620.5
2022-11-19T14:22:47.078Z,98619.7
2022-11-19T14:28:22.138Z,98616.3
2022-11-19T14:34:00.788Z,98613.5
2022-11-19T14:39:39.001Z,98613.9
2022-11-19T14:45:14.451Z,98608.6
2022-11-19T14:50:50.007Z,98608.9
2022-11-19T14:56:25.281Z,98621
2022-11-19T15:02:00.376Z,98619.8
2022-11-19T15:07:36.111Z,98623.7
2022-11-19T15:13:12.791Z,98635.1
2022-11-19T15:18:47.776Z,98647.7
2022-11-19T15:24:22.961Z,98659.8
2022-11-19T15:30:00.123Z,98674.4
2022-11-19T15:35:35.074Z,98682
2022-11-19T15:41:10.288Z,98687.8
2022-11-19T15:46:45.712Z,98693.8
2022-11-19T15:52:20.440Z,98689.7
2022-11-19T15:57:57.407Z,98697.7
2022-11-19T16:03:54.961Z,98700
2022-11-19T16:09:29.827Z,98698.3
2022-11-19T16:15:04.776Z,98696.4
2022-11-19T16:20:40.537Z,98701
2022-11-19T16:26:16.233Z,98701.2
2022-11-19T16:31:51.412Z,98707.5
2022-11-19T16:37:26.496Z,98713.1
2022-11-19T16:43:02.198Z,98716.3
2022-11-19T16:48:59.292Z,98721.4
2022-11-19T16:54:32.986Z,98732.6
2022-11-19T17:00:08.621Z,98741.5
2022-11-19T17:05:43.487Z,98752
2022-11-19T17:11:19.409Z,98754.9
2022-11-19T17:16:54.732Z,98760.2
2022-11-19T17:22:32.531Z,98774.3
2022-11-19T17:28:07.768Z,98785.4
2022-11-19T17:33:43.979Z,98789
2022-11-19T17:39:26.102Z,98796.8
2022-11-19T17:45:11.402Z,98798.1
2022-11-19T17:50:46.579Z,98801.5
2022-11-19T17:56:23.979Z,98804.6
2022-11-19T18:02:00.578Z,98813.9
2022-11-19T18:07:37.269Z,98821
2022-11-19T18:13:14.575Z,98833.3
2022-11-19T18:18:49.848Z,98840.3
2022-11-19T18:24:26.097Z,98840.4
2022-11-19T18:30:01.714Z,98833.5
2022-11-19T18:35:36.728Z,98837.3
2022-11-19T18:41:14.245Z,98838.2
2022-11-19T18:46:52.064Z,98833.3
2022-11-19T18:52:50.030Z,98829.7
2022-11-19T18:58:25.517Z,98831.9
2022-11-19T19:04:02.687Z,98826.9
2022-11-19T19:09:40.730Z,98832.1
2022-11-19T19:15:15.566Z,98841.7
2022-11-19T19:20:51.083Z,98831.8
2022-11-19T19:26:46.985Z,98833
2022-11-19T19:32:31.264Z,98831.4
2022-11-19T19:38:19.289Z,98837.8
2022-11-19T19:44:01.190Z,98838
2022-11-19T19:49:45.972Z,98850.3
2022-11-19T19:55:21.112Z,98858.8
2022-11-19T20:00:55.903Z,98859.6
2022-11-19T20:06:31.300Z,98860.7
2022-11-19T20:12:06.547Z,98863.7
2022-11-19T20:17:41.963Z,98858.4
2022-11-19T20:23:16.833Z,98865.5
2022-11-19T20:28:51.845Z,98864.7
2022-11-19T20:34:27.281Z,98873.8
2022-11-19T20:40:03.869Z,98873.3
2022-11-19T20:45:40.692Z,98877.9
2022-11-19T20:51:16.438Z,98883.2
2022-11-19T20:56:52.255Z,98893.4
2022-11-19T21:02:28.047Z,98896.4
2022-11-19T21:08:27.900Z,98900.1
2022-11-19T21:14:15.789Z,98904.1
2022-11-19T21:20:03.271Z,98910
2022-11-19T21:26:00.278Z,98911.3
2022-11-19T21:31:42.756Z,98908
2022-11-19T21:37:17.825Z,98908.8
2022-11-19T21:43:01.905Z,98910.9
2022-11-19T21:48:37.594Z,98912.2
2022-11-19T21:54:13.083Z,98908.6
2022-11-19T21:59:49.674Z,98907.9
2022-11-19T22:05:31.619Z,98906.7
2022-11-19T22:11:06.597Z,98901.9
2022-11-19T22:16:56.886Z,98901.2
2022-11-19T22:22:31.882Z,98898.5
2022-11-19T22:28:07.231Z,98897.4
2022-11-19T22:33:43.167Z,98890.7
2022-11-19T22:39:39.590Z,98886.4
2022-11-19T22:45:15.267Z,98886.1
2022-11-19T22:50:50.465Z,98883.2
2022-11-19T22:56:27.152Z,98881
2022-11-19T23:02:02.377Z,98878
2022-11-19T23:07:37.857Z,98876.1
2022-11-19T23:13:13.469Z,98880.7
2022-11-19T23:18:57.588Z,98880.2
2022-11-19T23:24:35.455Z,98878.8
2022-11-19T23:30:11.964Z,98882.3
2022-11-19T23:35:48.058Z,98881.2
2022-11-19T23:41:23.205Z,98881.9
2022-11-19T23:47:20.431Z,98876.8
2022-11-19T23:52:54.411Z,98870.9
2022-11-19T23:58:29.184Z,98870.1
